Stallion Springs, California
Current Conditions -  °F | °C
As of 11:35 PM on Saturday 22 Nov 2014 (Local Time) from KTSP Reporting Station
Haze Haze  
Wind Chill:   Ceiling: 400
Heat Index:   Visibility: 5mi
Dew Point:   Wind: 24mph
Humidity: 100%   Direction: 290°WNW
Pressure: 30.13"   Gusts: 35mph
Location:  35.1338°N, 118.552°W
Report Text: KTSP 230735Z AUTO 29021G30KT 5SM BR BKN004 OVC008 08/08 A3013 RMK AO2
Loading
Personal Weather Stations






























Interactive Weather Map New forecast layout! Learn more

10-Day Weather Forecast

Advertisements
Track Severe Weather on mobile